sensor_id;sensor_type;location;lat;lon;timestamp;temperature;humidity
54622;DHT22;40521;53.146;6.556;2023-05-10T00:01:23;12.60;99.90
54622;DHT22;40521;53.146;6.556;2023-05-10T00:03:48;12.50;99.90
54622;DHT22;40521;53.146;6.556;2023-05-10T00:06:14;12.50;99.90
54622;DHT22;40521;53.146;6.556;2023-05-10T00:08:40;12.50;99.90
54622;DHT22;40521;53.146;6.556;2023-05-10T00:11:06;12.50;99.90
54622;DHT22;40521;53.146;6.556;2023-05-10T00:13:31;12.40;99.90
54622;DHT22;40521;53.146;6.556;2023-05-10T00:15:57;12.50;99.90
54622;DHT22;40521;53.146;6.556;2023-05-10T00:18:23;12.40;99.90
54622;DHT22;40521;53.146;6.556;2023-05-10T00:20:48;12.40;99.90
54622;DHT22;40521;53.146;6.556;2023-05-10T00:23:14;12.40;99.90
54622;DHT22;40521;53.146;6.556;2023-05-10T00:25:40;12.40;99.90
54622;DHT22;40521;53.146;6.556;2023-05-10T00:28:05;12.40;99.90
54622;DHT22;40521;53.146;6.556;2023-05-10T00:30:31;12.40;99.90
54622;DHT22;40521;53.146;6.556;2023-05-10T00:32:57;12.40;99.90
54622;DHT22;40521;53.146;6.556;2023-05-10T00:35:22;12.50;99.90
54622;DHT22;40521;53.146;6.556;2023-05-10T00:37:48;12.50;99.90
54622;DHT22;40521;53.146;6.556;2023-05-10T00:40:14;12.50;99.90
54622;DHT22;40521;53.146;6.556;2023-05-10T00:42:39;12.50;99.90
54622;DHT22;40521;53.146;6.556;2023-05-10T00:45:05;12.50;99.90
54622;DHT22;40521;53.146;6.556;2023-05-10T00:47:31;12.50;99.90
54622;DHT22;40521;53.146;6.556;2023-05-10T00:49:57;12.50;99.90
54622;DHT22;40521;53.146;6.556;2023-05-10T00:52:23;12.40;99.90
54622;DHT22;40521;53.146;6.556;2023-05-10T00:54:50;12.50;99.90
54622;DHT22;40521;53.146;6.556;2023-05-10T00:57:16;12.40;99.90
54622;DHT22;40521;53.146;6.556;2023-05-10T00:59:42;12.40;99.90
54622;DHT22;40521;53.146;6.556;2023-05-10T01:02:08;12.40;99.90
54622;DHT22;40521;53.146;6.556;2023-05-10T01:04:33;12.40;99.90
54622;DHT22;40521;53.146;6.556;2023-05-10T01:07:00;12.40;99.90
54622;DHT22;40521;53.146;6.556;2023-05-10T01:09:26;12.40;99.90
54622;DHT22;40521;53.146;6.556;2023-05-10T01:11:52;12.40;99.90
54622;DHT22;40521;53.146;6.556;2023-05-10T01:14:19;12.30;99.90
54622;DHT22;40521;53.146;6.556;2023-05-10T01:16:45;12.30;99.90
54622;DHT22;40521;53.146;6.556;2023-05-10T01:19:16;12.20;99.90
54622;DHT22;40521;53.146;6.556;2023-05-10T01:21:46;12.20;99.90
54622;DHT22;40521;53.146;6.556;2023-05-10T01:37:21;12.20;99.90
54622;DHT22;40521;53.146;6.556;2023-05-10T01:40:01;12.20;99.90
54622;DHT22;40521;53.146;6.556;2023-05-10T01:42:29;12.20;99.90
54622;DHT22;40521;53.146;6.556;2023-05-10T01:45:04;12.20;99.90
54622;DHT22;40521;53.146;6.556;2023-05-10T01:49:58;12.20;99.90
54622;DHT22;40521;53.146;6.556;2023-05-10T01:52:37;12.10;99.90
54622;DHT22;40521;53.146;6.556;2023-05-10T01:55:08;12.10;99.90
54622;DHT22;40521;53.146;6.556;2023-05-10T01:57:35;12.10;99.90
54622;DHT22;40521;53.146;6.556;2023-05-10T02:00:03;12.10;99.90
54622;DHT22;40521;53.146;6.556;2023-05-10T02:02:29;12.10;99.90
54622;DHT22;40521;53.146;6.556;2023-05-10T02:04:56;12.00;99.90
54622;DHT22;40521;53.146;6.556;2023-05-10T02:07:22;12.10;99.90
54622;DHT22;40521;53.146;6.556;2023-05-10T02:09:49;12.00;99.90
54622;DHT22;40521;53.146;6.556;2023-05-10T02:12:16;12.00;99.90
54622;DHT22;40521;53.146;6.556;2023-05-10T02:14:42;12.00;99.90
54622;DHT22;40521;53.146;6.556;2023-05-10T02:17:09;12.00;99.90
54622;DHT22;40521;53.146;6.556;2023-05-10T02:19:36;12.00;99.90
54622;DHT22;40521;53.146;6.556;2023-05-10T02:22:02;12.00;99.90
54622;DHT22;40521;53.146;6.556;2023-05-10T02:24:28;12.00;99.90
54622;DHT22;40521;53.146;6.556;2023-05-10T02:26:55;12.00;99.90
54622;DHT22;40521;53.146;6.556;2023-05-10T02:29:22;11.90;99.90
54622;DHT22;40521;53.146;6.556;2023-05-10T02:31:48;11.90;99.90
54622;DHT22;40521;53.146;6.556;2023-05-10T02:34:16;11.90;99.90
54622;DHT22;40521;53.146;6.556;2023-05-10T02:36:41;11.90;99.90
54622;DHT22;40521;53.146;6.556;2023-05-10T02:39:08;11.90;99.90
54622;DHT22;40521;53.146;6.556;2023-05-10T02:41:37;11.90;99.90
54622;DHT22;40521;53.146;6.556;2023-05-10T02:44:05;11.90;99.90
54622;DHT22;40521;53.146;6.556;2023-05-10T02:46:33;11.90;99.90
54622;DHT22;40521;53.146;6.556;2023-05-10T02:48:59;14.50;99.90
54622;DHT22;40521;53.146;6.556;2023-05-10T02:51:25;12.00;99.90
54622;DHT22;40521;53.146;6.556;2023-05-10T02:53:53;11.90;99.90
54622;DHT22;40521;53.146;6.556;2023-05-10T02:56:23;12.00;99.90
54622;DHT22;40521;53.146;6.556;2023-05-10T02:58:50;12.00;99.90
54622;DHT22;40521;53.146;6.556;2023-05-10T03:01:16;12.00;99.90
54622;DHT22;40521;53.146;6.556;2023-05-10T03:03:41;11.90;99.90
54622;DHT22;40521;53.146;6.556;2023-05-10T03:06:07;12.00;99.90
54622;DHT22;40521;53.146;6.556;2023-05-10T03:08:33;11.90;99.90
54622;DHT22;40521;53.146;6.556;2023-05-10T03:11:07;11.90;99.90
54622;DHT22;40521;53.146;6.556;2023-05-10T03:16:10;11.90;99.90
54622;DHT22;40521;53.146;6.556;2023-05-10T03:21:14;11.90;99.90
54622;DHT22;40521;53.146;6.556;2023-05-10T03:23:43;11.90;99.90
54622;DHT22;40521;53.146;6.556;2023-05-10T03:26:16;11.80;99.90
54622;DHT22;40521;53.146;6.556;2023-05-10T03:28:42;12.00;99.90
54622;DHT22;40521;53.146;6.556;2023-05-10T03:31:08;11.80;99.90
54622;DHT22;40521;53.146;6.556;2023-05-10T03:33:34;11.90;99.90
54622;DHT22;40521;53.146;6.556;2023-05-10T03:36:00;11.90;99.90
54622;DHT22;40521;53.146;6.556;2023-05-10T03:38:26;11.90;99.90
54622;DHT22;40521;53.146;6.556;2023-05-10T03:40:51;11.90;99.90
54622;DHT22;40521;53.146;6.556;2023-05-10T03:43:17;11.90;99.90
54622;DHT22;40521;53.146;6.556;2023-05-10T03:45:43;11.90;99.90
54622;DHT22;40521;53.146;6.556;2023-05-10T03:48:08;11.90;99.90
54622;DHT22;40521;53.146;6.556;2023-05-10T03:50:34;11.90;99.90
54622;DHT22;40521;53.146;6.556;2023-05-10T03:52:59;12.00;99.90
54622;DHT22;40521;53.146;6.556;2023-05-10T03:55:25;12.00;99.90
54622;DHT22;40521;53.146;6.556;2023-05-10T03:57:51;11.90;99.90
54622;DHT22;40521;53.146;6.556;2023-05-10T04:00:16;11.90;99.90
54622;DHT22;40521;53.146;6.556;2023-05-10T04:02:42;11.90;99.90
54622;DHT22;40521;53.146;6.556;2023-05-10T04:05:08;11.90;99.90
54622;DHT22;40521;53.146;6.556;2023-05-10T04:07:33;11.90;99.90
54622;DHT22;40521;53.146;6.556;2023-05-10T04:09:59;11.90;99.90
54622;DHT22;40521;53.146;6.556;2023-05-10T04:12:25;11.90;99.90
54622;DHT22;40521;53.146;6.556;2023-05-10T04:14:50;11.80;99.90
54622;DHT22;40521;53.146;6.556;2023-05-10T04:17:16;11.80;99.90
54622;DHT22;40521;53.146;6.556;2023-05-10T04:19:42;11.80;99.90
54622;DHT22;40521;53.146;6.556;2023-05-10T04:22:08;11.80;99.90
54622;DHT22;40521;53.146;6.556;2023-05-10T04:24:34;11.80;99.90
54622;DHT22;40521;53.146;6.556;2023-05-10T04:26:59;11.80;99.90
54622;DHT22;40521;53.146;6.556;2023-05-10T04:29:25;11.70;99.90
54622;DHT22;40521;53.146;6.556;2023-05-10T04:31:52;11.70;99.90
54622;DHT22;40521;53.146;6.556;2023-05-10T04:34:17;11.80;99.90
54622;DHT22;40521;53.146;6.556;2023-05-10T04:36:43;11.70;99.90
54622;DHT22;40521;53.146;6.556;2023-05-10T04:39:09;11.70;99.90
54622;DHT22;40521;53.146;6.556;2023-05-10T04:41:35;11.70;99.90
54622;DHT22;40521;53.146;6.556;2023-05-10T04:44:00;11.70;99.90
54622;DHT22;40521;53.146;6.556;2023-05-10T04:46:26;11.70;99.90
54622;DHT22;40521;53.146;6.556;2023-05-10T04:48:52;11.70;99.90
54622;DHT22;40521;53.146;6.556;2023-05-10T04:51:17;11.70;99.90
54622;DHT22;40521;53.146;6.556;2023-05-10T04:53:43;11.70;99.90
54622;DHT22;40521;53.146;6.556;2023-05-10T04:56:08;11.70;99.90
54622;DHT22;40521;53.146;6.556;2023-05-10T04:58:34;11.70;99.90
54622;DHT22;40521;53.146;6.556;2023-05-10T05:01:06;11.70;99.90
54622;DHT22;40521;53.146;6.556;2023-05-10T05:03:33;11.60;99.90
54622;DHT22;40521;53.146;6.556;2023-05-10T05:05:58;11.60;99.90
54622;DHT22;40521;53.146;6.556;2023-05-10T05:08:24;11.60;99.90
54622;DHT22;40521;53.146;6.556;2023-05-10T05:10:50;11.60;99.90
54622;DHT22;40521;53.146;6.556;2023-05-10T05:13:15;11.60;99.90
54622;DHT22;40521;53.146;6.556;2023-05-10T05:15:41;11.60;99.90
54622;DHT22;40521;53.146;6.556;2023-05-10T05:18:06;11.70;99.90
54622;DHT22;40521;53.146;6.556;2023-05-10T05:20:32;11.60;99.90
54622;DHT22;40521;53.146;6.556;2023-05-10T05:22:59;11.60;99.90
54622;DHT22;40521;53.146;6.556;2023-05-10T05:25:24;11.60;99.90
54622;DHT22;40521;53.146;6.556;2023-05-10T05:27:50;11.60;99.90
54622;DHT22;40521;53.146;6.556;2023-05-10T05:30:16;11.60;99.90
54622;DHT22;40521;53.146;6.556;2023-05-10T05:32:42;11.60;99.90
54622;DHT22;40521;53.146;6.556;2023-05-10T05:35:07;11.60;99.90
54622;DHT22;40521;53.146;6.556;2023-05-10T05:37:33;11.60;99.90
54622;DHT22;40521;53.146;6.556;2023-05-10T05:39:59;11.60;99.90
54622;DHT22;40521;53.146;6.556;2023-05-10T05:42:26;11.60;99.90
54622;DHT22;40521;53.146;6.556;2023-05-10T05:44:52;11.50;99.90
54622;DHT22;40521;53.146;6.556;2023-05-10T05:47:18;11.50;99.90
54622;DHT22;40521;53.146;6.556;2023-05-10T05:49:46;11.60;99.90
54622;DHT22;40521;53.146;6.556;2023-05-10T05:52:11;11.60;99.90
54622;DHT22;40521;53.146;6.556;2023-05-10T05:54:37;11.60;99.90
54622;DHT22;40521;53.146;6.556;2023-05-10T05:57:03;11.60;99.90
54622;DHT22;40521;53.146;6.556;2023-05-10T05:59:28;11.60;99.90
54622;DHT22;40521;53.146;6.556;2023-05-10T06:01:54;11.60;99.90
54622;DHT22;40521;53.146;6.556;2023-05-10T06:04:20;11.60;99.90
54622;DHT22;40521;53.146;6.556;2023-05-10T06:06:45;11.60;99.90
54622;DHT22;40521;53.146;6.556;2023-05-10T06:09:12;11.60;99.90
54622;DHT22;40521;53.146;6.556;2023-05-10T06:11:37;11.60;99.90
54622;DHT22;40521;53.146;6.556;2023-05-10T06:14:03;11.60;99.90
54622;DHT22;40521;53.146;6.556;2023-05-10T06:16:33;11.60;99.90
54622;DHT22;40521;53.146;6.556;2023-05-10T06:18:58;11.70;99.90
54622;DHT22;40521;53.146;6.556;2023-05-10T06:21:24;11.70;99.90
54622;DHT22;40521;53.146;6.556;2023-05-10T06:23:50;11.70;99.90
54622;DHT22;40521;53.146;6.556;2023-05-10T06:26:18;11.70;99.90
54622;DHT22;40521;53.146;6.556;2023-05-10T06:28:44;11.80;99.90
54622;DHT22;40521;53.146;6.556;2023-05-10T06:31:09;11.80;99.90
54622;DHT22;40521;53.146;6.556;2023-05-10T06:33:37;10.80;99.90
54622;DHT22;40521;53.146;6.556;2023-05-10T06:36:02;11.80;99.90
54622;DHT22;40521;53.146;6.556;2023-05-10T06:38:28;11.80;99.90
54622;DHT22;40521;53.146;6.556;2023-05-10T06:40:54;11.80;99.90
54622;DHT22;40521;53.146;6.556;2023-05-10T06:43:19;11.80;99.90
54622;DHT22;40521;53.146;6.556;2023-05-10T06:45:45;11.80;99.90
54622;DHT22;40521;53.146;6.556;2023-05-10T06:48:10;11.80;99.90
54622;DHT22;40521;53.146;6.556;2023-05-10T06:50:36;11.80;99.90
54622;DHT22;40521;53.146;6.556;2023-05-10T06:53:02;11.80;99.90
54622;DHT22;40521;53.146;6.556;2023-05-10T06:55:27;11.80;99.90
54622;DHT22;40521;53.146;6.556;2023-05-10T06:57:53;11.80;99.90
54622;DHT22;40521;53.146;6.556;2023-05-10T07:00:19;11.80;99.90
54622;DHT22;40521;53.146;6.556;2023-05-10T07:02:45;11.70;99.90
54622;DHT22;40521;53.146;6.556;2023-05-10T07:05:10;11.70;99.90
54622;DHT22;40521;53.146;6.556;2023-05-10T07:07:37;11.80;99.90
54622;DHT22;40521;53.146;6.556;2023-05-10T07:10:02;11.70;99.90
54622;DHT22;40521;53.146;6.556;2023-05-10T07:12:28;11.70;99.90
54622;DHT22;40521;53.146;6.556;2023-05-10T07:14:54;11.70;99.90
54622;DHT22;40521;53.146;6.556;2023-05-10T07:17:19;11.70;99.90
54622;DHT22;40521;53.146;6.556;2023-05-10T07:19:45;11.80;99.90
54622;DHT22;40521;53.146;6.556;2023-05-10T07:22:11;11.80;99.90
54622;DHT22;40521;53.146;6.556;2023-05-10T07:24:36;11.80;99.90
54622;DHT22;40521;53.146;6.556;2023-05-10T07:27:02;11.80;99.90
54622;DHT22;40521;53.146;6.556;2023-05-10T07:29:28;11.90;99.90
54622;DHT22;40521;53.146;6.556;2023-05-10T07:31:54;11.90;99.90
54622;DHT22;40521;53.146;6.556;2023-05-10T07:34:19;11.90;99.90
54622;DHT22;40521;53.146;6.556;2023-05-10T07:36:45;12.00;99.90
54622;DHT22;40521;53.146;6.556;2023-05-10T07:39:11;12.10;99.90
54622;DHT22;40521;53.146;6.556;2023-05-10T07:41:36;12.10;99.90
54622;DHT22;40521;53.146;6.556;2023-05-10T07:44:03;12.10;99.90
54622;DHT22;40521;53.146;6.556;2023-05-10T07:46:29;12.20;99.90
54622;DHT22;40521;53.146;6.556;2023-05-10T07:48:54;12.20;99.90
54622;DHT22;40521;53.146;6.556;2023-05-10T07:51:20;12.20;99.90
54622;DHT22;40521;53.146;6.556;2023-05-10T07:53:46;12.20;99.90
54622;DHT22;40521;53.146;6.556;2023-05-10T07:56:25;12.20;99.90
54622;DHT22;40521;53.146;6.556;2023-05-10T07:58:53;12.20;99.90
54622;DHT22;40521;53.146;6.556;2023-05-10T08:01:19;12.20;99.90
54622;DHT22;40521;53.146;6.556;2023-05-10T08:03:45;12.20;99.90
54622;DHT22;40521;53.146;6.556;2023-05-10T08:06:10;12.20;99.90
54622;DHT22;40521;53.146;6.556;2023-05-10T08:08:36;12.20;99.90
54622;DHT22;40521;53.146;6.556;2023-05-10T08:11:03;12.20;99.90
54622;DHT22;40521;53.146;6.556;2023-05-10T08:13:28;12.20;99.90
54622;DHT22;40521;53.146;6.556;2023-05-10T08:15:54;12.20;99.90
54622;DHT22;40521;53.146;6.556;2023-05-10T08:18:19;12.20;99.90
54622;DHT22;40521;53.146;6.556;2023-05-10T08:20:45;12.20;99.90
54622;DHT22;40521;53.146;6.556;2023-05-10T08:23:14;14.20;99.90
54622;DHT22;40521;53.146;6.556;2023-05-10T08:25:39;12.20;99.90
54622;DHT22;40521;53.146;6.556;2023-05-10T08:28:05;12.20;99.90
54622;DHT22;40521;53.146;6.556;2023-05-10T08:30:31;12.30;99.90
54622;DHT22;40521;53.146;6.556;2023-05-10T08:32:57;12.40;99.90
54622;DHT22;40521;53.146;6.556;2023-05-10T08:35:22;12.40;99.90
54622;DHT22;40521;53.146;6.556;2023-05-10T08:37:48;12.40;99.90
54622;DHT22;40521;53.146;6.556;2023-05-10T08:40:13;12.40;99.90
54622;DHT22;40521;53.146;6.556;2023-05-10T08:42:40;12.40;99.90
54622;DHT22;40521;53.146;6.556;2023-05-10T08:45:07;12.50;99.90
54622;DHT22;40521;53.146;6.556;2023-05-10T08:47:34;12.50;99.90
54622;DHT22;40521;53.146;6.556;2023-05-10T08:50:01;12.50;99.90
54622;DHT22;40521;53.146;6.556;2023-05-10T08:52:28;12.60;99.90
54622;DHT22;40521;53.146;6.556;2023-05-10T08:54:55;12.60;99.90
54622;DHT22;40521;53.146;6.556;2023-05-10T08:57:20;12.60;99.90
54622;DHT22;40521;53.146;6.556;2023-05-10T08:59:46;12.70;99.90
54622;DHT22;40521;53.146;6.556;2023-05-10T09:02:12;12.70;99.90
54622;DHT22;40521;53.146;6.556;2023-05-10T09:04:38;12.70;99.90
54622;DHT22;40521;53.146;6.556;2023-05-10T09:07:04;12.70;99.90
54622;DHT22;40521;53.146;6.556;2023-05-10T09:09:30;12.80;99.90
54622;DHT22;40521;53.146;6.556;2023-05-10T09:11:56;12.80;99.90
54622;DHT22;40521;53.146;6.556;2023-05-10T09:14:23;12.80;99.90
54622;DHT22;40521;53.146;6.556;2023-05-10T09:16:48;12.80;99.90
54622;DHT22;40521;53.146;6.556;2023-05-10T09:19:14;12.90;99.90
54622;DHT22;40521;53.146;6.556;2023-05-10T09:21:40;12.90;99.90
54622;DHT22;40521;53.146;6.556;2023-05-10T09:24:06;13.10;99.90
54622;DHT22;40521;53.146;6.556;2023-05-10T09:26:32;13.20;99.90
54622;DHT22;40521;53.146;6.556;2023-05-10T09:28:59;13.20;99.90
54622;DHT22;40521;53.146;6.556;2023-05-10T09:31:25;13.20;99.90
54622;DHT22;40521;53.146;6.556;2023-05-10T09:34:22;13.20;99.90
54622;DHT22;40521;53.146;6.556;2023-05-10T09:36:57;13.20;99.90
54622;DHT22;40521;53.146;6.556;2023-05-10T09:39:30;13.30;99.90
54622;DHT22;40521;53.146;6.556;2023-05-10T09:41:57;13.50;99.90
54622;DHT22;40521;53.146;6.556;2023-05-10T09:44:23;13.60;99.90
54622;DHT22;40521;53.146;6.556;2023-05-10T09:46:50;13.60;99.90
54622;DHT22;40521;53.146;6.556;2023-05-10T09:49:18;13.60;99.90
54622;DHT22;40521;53.146;6.556;2023-05-10T09:51:44;13.50;99.90
54622;DHT22;40521;53.146;6.556;2023-05-10T09:54:14;13.50;99.90
54622;DHT22;40521;53.146;6.556;2023-05-10T09:56:40;13.50;99.90
54622;DHT22;40521;53.146;6.556;2023-05-10T09:59:12;13.50;99.90
54622;DHT22;40521;53.146;6.556;2023-05-10T10:01:41;15.80;99.90
54622;DHT22;40521;53.146;6.556;2023-05-10T10:04:22;13.40;99.90
54622;DHT22;40521;53.146;6.556;2023-05-10T10:06:57;13.30;99.90
54622;DHT22;40521;53.146;6.556;2023-05-10T10:09:26;14.50;99.90
54622;DHT22;40521;53.146;6.556;2023-05-10T10:11:55;13.80;99.90
54622;DHT22;40521;53.146;6.556;2023-05-10T10:14:31;13.40;99.90
54622;DHT22;40521;53.146;6.556;2023-05-10T10:17:00;13.50;99.90
54622;DHT22;40521;53.146;6.556;2023-05-10T10:19:25;13.60;99.90
54622;DHT22;40521;53.146;6.556;2023-05-10T10:21:51;13.60;99.90
54622;DHT22;40521;53.146;6.556;2023-05-10T10:24:17;13.80;99.90
54622;DHT22;40521;53.146;6.556;2023-05-10T10:26:43;13.90;99.90
54622;DHT22;40521;53.146;6.556;2023-05-10T10:34:46;14.00;99.90
54622;DHT22;40521;53.146;6.556;2023-05-10T10:37:12;14.00;99.90
54622;DHT22;40521;53.146;6.556;2023-05-10T10:39:37;13.90;99.90
54622;DHT22;40521;53.146;6.556;2023-05-10T10:42:03;13.90;99.90
54622;DHT22;40521;53.146;6.556;2023-05-10T10:54:41;13.80;99.90
54622;DHT22;40521;53.146;6.556;2023-05-10T10:57:10;13.90;99.90
54622;DHT22;40521;53.146;6.556;2023-05-10T10:59:40;13.90;99.90
54622;DHT22;40521;53.146;6.556;2023-05-10T11:02:06;14.00;99.90
54622;DHT22;40521;53.146;6.556;2023-05-10T11:04:41;14.10;99.90
54622;DHT22;40521;53.146;6.556;2023-05-10T11:07:16;12.40;99.90
54622;DHT22;40521;53.146;6.556;2023-05-10T11:09:42;13.90;99.90
54622;DHT22;40521;53.146;6.556;2023-05-10T11:12:08;13.60;99.90
54622;DHT22;40521;53.146;6.556;2023-05-10T11:14:35;13.10;99.90
54622;DHT22;40521;53.146;6.556;2023-05-10T11:17:01;14.90;99.90
54622;DHT22;40521;53.146;6.556;2023-05-10T11:19:29;14.90;99.90
54622;DHT22;40521;53.146;6.556;2023-05-10T11:24:30;14.80;99.90
54622;DHT22;40521;53.146;6.556;2023-05-10T11:26:56;14.80;99.90
54622;DHT22;40521;53.146;6.556;2023-05-10T11:29:22;14.80;99.90
54622;DHT22;40521;53.146;6.556;2023-05-10T11:31:48;14.70;99.90
54622;DHT22;40521;53.146;6.556;2023-05-10T11:36:53;14.50;99.90
54622;DHT22;40521;53.146;6.556;2023-05-10T11:39:19;14.40;99.90
54622;DHT22;40521;53.146;6.556;2023-05-10T11:41:48;14.40;99.90
54622;DHT22;40521;53.146;6.556;2023-05-10T11:44:13;14.30;99.90
54622;DHT22;40521;53.146;6.556;2023-05-10T11:46:39;14.30;99.90
54622;DHT22;40521;53.146;6.556;2023-05-10T11:49:05;14.20;99.90
54622;DHT22;40521;53.146;6.556;2023-05-10T11:51:35;14.20;99.90
54622;DHT22;40521;53.146;6.556;2023-05-10T11:54:02;14.20;99.90
54622;DHT22;40521;53.146;6.556;2023-05-10T11:56:32;14.20;99.90
54622;DHT22;40521;53.146;6.556;2023-05-10T11:58:57;14.20;99.90
54622;DHT22;40521;53.146;6.556;2023-05-10T12:01:24;14.20;99.90
54622;DHT22;40521;53.146;6.556;2023-05-10T12:03:50;14.30;99.90
54622;DHT22;40521;53.146;6.556;2023-05-10T12:06:17;14.30;99.90
54622;DHT22;40521;53.146;6.556;2023-05-10T12:08:47;14.30;99.90
54622;DHT22;40521;53.146;6.556;2023-05-10T12:11:13;14.40;99.90
54622;DHT22;40521;53.146;6.556;2023-05-10T12:13:43;14.30;99.90
54622;DHT22;40521;53.146;6.556;2023-05-10T12:16:19;14.40;99.90
54622;DHT22;40521;53.146;6.556;2023-05-10T12:18:45;14.50;99.90
54622;DHT22;40521;53.146;6.556;2023-05-10T12:21:13;14.60;99.90
54622;DHT22;40521;53.146;6.556;2023-05-10T12:23:40;14.60;99.90
54622;DHT22;40521;53.146;6.556;2023-05-10T12:26:08;14.80;99.90
54622;DHT22;40521;53.146;6.556;2023-05-10T12:28:34;14.90;99.90
54622;DHT22;40521;53.146;6.556;2023-05-10T12:31:01;15.00;99.90
54622;DHT22;40521;53.146;6.556;2023-05-10T12:33:27;15.00;99.90
54622;DHT22;40521;53.146;6.556;2023-05-10T12:36:00;15.20;99.90
54622;DHT22;40521;53.146;6.556;2023-05-10T12:41:02;15.40;99.90
54622;DHT22;40521;53.146;6.556;2023-05-10T12:43:28;15.30;99.90
54622;DHT22;40521;53.146;6.556;2023-05-10T12:45:54;13.30;99.90
54622;DHT22;40521;53.146;6.556;2023-05-10T12:48:20;15.20;99.90
54622;DHT22;40521;53.146;6.556;2023-05-10T12:50:45;15.20;99.90
54622;DHT22;40521;53.146;6.556;2023-05-10T12:53:12;15.10;99.90
54622;DHT22;40521;53.146;6.556;2023-05-10T12:55:39;15.00;99.90
54622;DHT22;40521;53.146;6.556;2023-05-10T12:58:05;15.00;99.90
54622;DHT22;40521;53.146;6.556;2023-05-10T13:00:30;14.90;99.90
54622;DHT22;40521;53.146;6.556;2023-05-10T13:02:56;14.90;99.90
54622;DHT22;40521;53.146;6.556;2023-05-10T13:05:21;14.90;99.90
54622;DHT22;40521;53.146;6.556;2023-05-10T13:07:47;14.80;99.90
54622;DHT22;40521;53.146;6.556;2023-05-10T13:10:13;14.80;99.90
54622;DHT22;40521;53.146;6.556;2023-05-10T13:12:38;14.80;99.90
54622;DHT22;40521;53.146;6.556;2023-05-10T13:15:04;14.90;99.90
54622;DHT22;40521;53.146;6.556;2023-05-10T13:17:30;14.80;99.90
54622;DHT22;40521;53.146;6.556;2023-05-10T13:19:56;14.80;99.90
54622;DHT22;40521;53.146;6.556;2023-05-10T13:22:21;14.90;99.90
54622;DHT22;40521;53.146;6.556;2023-05-10T13:24:47;14.90;99.90
54622;DHT22;40521;53.146;6.556;2023-05-10T13:27:12;15.00;99.90
54622;DHT22;40521;53.146;6.556;2023-05-10T13:29:38;15.10;99.90
54622;DHT22;40521;53.146;6.556;2023-05-10T13:32:04;15.10;99.90
54622;DHT22;40521;53.146;6.556;2023-05-10T13:34:29;15.10;99.90
54622;DHT22;40521;53.146;6.556;2023-05-10T13:36:55;15.20;99.90
54622;DHT22;40521;53.146;6.556;2023-05-10T13:39:24;15.20;99.90
54622;DHT22;40521;53.146;6.556;2023-05-10T13:42:09;15.20;99.90
54622;DHT22;40521;53.146;6.556;2023-05-10T13:44:35;15.90;99.90
54622;DHT22;40521;53.146;6.556;2023-05-10T13:47:01;15.60;99.90
54622;DHT22;40521;53.146;6.556;2023-05-10T13:49:27;15.30;99.90
54622;DHT22;40521;53.146;6.556;2023-05-10T13:51:52;15.70;99.90
54622;DHT22;40521;53.146;6.556;2023-05-10T13:54:18;15.50;99.90
54622;DHT22;40521;53.146;6.556;2023-05-10T13:56:45;15.30;99.90
54622;DHT22;40521;53.146;6.556;2023-05-10T13:59:12;15.80;99.90
54622;DHT22;40521;53.146;6.556;2023-05-10T14:01:39;15.30;99.90
54622;DHT22;40521;53.146;6.556;2023-05-10T14:04:05;12.40;99.90
54622;DHT22;40521;53.146;6.556;2023-05-10T14:06:31;15.50;99.90
54622;DHT22;40521;53.146;6.556;2023-05-10T14:08:57;15.30;99.90
54622;DHT22;40521;53.146;6.556;2023-05-10T14:11:22;15.20;99.90
54622;DHT22;40521;53.146;6.556;2023-05-10T14:13:48;15.30;99.90
54622;DHT22;40521;53.146;6.556;2023-05-10T14:16:14;15.20;99.90
54622;DHT22;40521;53.146;6.556;2023-05-10T14:18:40;15.20;99.90
54622;DHT22;40521;53.146;6.556;2023-05-10T14:21:05;15.30;99.90
54622;DHT22;40521;53.146;6.556;2023-05-10T14:23:31;15.30;99.90
54622;DHT22;40521;53.146;6.556;2023-05-10T14:25:57;13.10;99.90
54622;DHT22;40521;53.146;6.556;2023-05-10T14:28:23;15.30;99.90
54622;DHT22;40521;53.146;6.556;2023-05-10T14:30:50;16.10;99.90
54622;DHT22;40521;53.146;6.556;2023-05-10T14:33:16;15.50;99.90
54622;DHT22;40521;53.146;6.556;2023-05-10T14:35:42;14.40;99.90
54622;DHT22;40521;53.146;6.556;2023-05-10T14:38:08;15.50;99.90
54622;DHT22;40521;53.146;6.556;2023-05-10T14:40:34;15.50;99.90
54622;DHT22;40521;53.146;6.556;2023-05-10T14:42:59;15.60;99.90
54622;DHT22;40521;53.146;6.556;2023-05-10T14:45:25;15.70;99.90
54622;DHT22;40521;53.146;6.556;2023-05-10T14:47:51;16.30;99.90
54622;DHT22;40521;53.146;6.556;2023-05-10T14:50:17;15.90;99.90
54622;DHT22;40521;53.146;6.556;2023-05-10T14:52:43;15.80;99.90
54622;DHT22;40521;53.146;6.556;2023-05-10T14:55:09;16.00;99.90
54622;DHT22;40521;53.146;6.556;2023-05-10T14:57:35;16.10;99.90
54622;DHT22;40521;53.146;6.556;2023-05-10T15:00:01;15.80;99.90
54622;DHT22;40521;53.146;6.556;2023-05-10T15:02:27;16.10;99.90
54622;DHT22;40521;53.146;6.556;2023-05-10T15:04:53;14.60;99.90
54622;DHT22;40521;53.146;6.556;2023-05-10T15:07:19;14.60;99.90
54622;DHT22;40521;53.146;6.556;2023-05-10T15:09:45;16.10;99.90
54622;DHT22;40521;53.146;6.556;2023-05-10T15:12:11;16.10;99.90
54622;DHT22;40521;53.146;6.556;2023-05-10T15:14:37;15.90;99.90
54622;DHT22;40521;53.146;6.556;2023-05-10T15:17:03;16.50;99.90
54622;DHT22;40521;53.146;6.556;2023-05-10T15:19:29;16.20;99.90
54622;DHT22;40521;53.146;6.556;2023-05-10T15:21:55;16.10;99.90
54622;DHT22;40521;53.146;6.556;2023-05-10T15:24:21;16.10;99.90
54622;DHT22;40521;53.146;6.556;2023-05-10T15:26:47;16.10;99.90
54622;DHT22;40521;53.146;6.556;2023-05-10T15:29:13;16.00;99.90
54622;DHT22;40521;53.146;6.556;2023-05-10T15:31:48;15.90;99.90
54622;DHT22;40521;53.146;6.556;2023-05-10T15:34:14;15.90;99.90
54622;DHT22;40521;53.146;6.556;2023-05-10T15:36:40;15.80;99.90
54622;DHT22;40521;53.146;6.556;2023-05-10T15:39:06;15.70;99.90
54622;DHT22;40521;53.146;6.556;2023-05-10T15:41:32;15.70;99.90
54622;DHT22;40521;53.146;6.556;2023-05-10T15:43:58;15.60;99.90
54622;DHT22;40521;53.146;6.556;2023-05-10T15:46:29;15.60;99.90
54622;DHT22;40521;53.146;6.556;2023-05-10T15:48:56;15.50;99.90
54622;DHT22;40521;53.146;6.556;2023-05-10T15:51:22;15.50;99.90
54622;DHT22;40521;53.146;6.556;2023-05-10T15:53:47;15.40;99.90
54622;DHT22;40521;53.146;6.556;2023-05-10T15:56:13;15.30;99.90
54622;DHT22;40521;53.146;6.556;2023-05-10T15:58:39;15.30;99.90
54622;DHT22;40521;53.146;6.556;2023-05-10T16:01:08;15.30;99.90
54622;DHT22;40521;53.146;6.556;2023-05-10T16:03:34;15.20;99.90
54622;DHT22;40521;53.146;6.556;2023-05-10T16:06:00;15.20;99.90
54622;DHT22;40521;53.146;6.556;2023-05-10T16:08:26;15.10;99.90
54622;DHT22;40521;53.146;6.556;2023-05-10T16:10:52;15.10;99.90